createdAt,value
2023-06-10T00:01:48.777Z,96902.69
2023-06-10T00:04:18.010Z,96892.78
2023-06-10T00:06:45.354Z,96895.91
2023-06-10T00:09:12.138Z,96889.34
2023-06-10T00:11:39.231Z,96894.69
2023-06-10T00:14:06.200Z,96890.53
2023-06-10T00:16:33.434Z,96883.09
2023-06-10T00:19:04.966Z,96886.22
2023-06-10T00:21:38.566Z,96892.97
2023-06-10T00:24:11.205Z,96890.44
2023-06-10T00:26:38.028Z,96886.34
2023-06-10T00:29:04.773Z,96888.59
2023-06-10T00:31:31.739Z,96888.22
2023-06-10T00:34:00.160Z,96892.94
2023-06-10T00:36:27.015Z,96887.19
2023-06-10T00:38:53.874Z,96882.63
2023-06-10T00:41:20.925Z,96884.50
2023-06-10T00:43:47.684Z,96886.56
2023-06-10T00:46:14.924Z,96889.22
2023-06-10T00:48:43.169Z,96880.97
2023-06-10T00:51:13.325Z,96883.22
2023-06-10T00:53:43.435Z,96878.25
2023-06-10T00:56:11.442Z,96885.91
2023-06-10T00:58:38.367Z,96877.91
2023-06-10T01:01:08.010Z,96880.78
2023-06-10T01:03:38.224Z,96877.06
2023-06-10T01:06:19.862Z,96887.13
2023-06-10T01:09:07.696Z,96876.06
2023-06-10T01:12:11.601Z,96881.56
2023-06-10T01:14:39.768Z,96882.81
2023-06-10T01:17:10.158Z,96887.13
2023-06-10T01:19:37.774Z,96882.91
2023-06-10T01:22:06.062Z,96883.22
2023-06-10T01:24:35.434Z,96891.13
2023-06-10T01:27:07.396Z,96881.94
2023-06-10T01:29:43.655Z,96876.91
2023-06-10T01:32:30.665Z,96879.19
2023-06-10T01:34:58.388Z,96882.09
2023-06-10T01:37:27.508Z,96887.84
2023-06-10T01:39:59.820Z,96883.31
2023-06-10T01:42:27.341Z,96878.78
2023-06-10T01:44:54.510Z,96883.72
2023-06-10T01:47:21.949Z,96883.91
2023-06-10T01:49:48.895Z,96882.00
2023-06-10T01:52:16.117Z,96891.88
2023-06-10T01:54:42.859Z,96889.75
2023-06-10T01:57:09.750Z,96882.84
2023-06-10T01:59:37.758Z,96890.53
2023-06-10T02:02:05.432Z,96892.56
2023-06-10T02:04:32.252Z,96893.00
2023-06-10T02:06:59.097Z,96896.09
2023-06-10T02:09:26.698Z,96893.78
2023-06-10T02:11:53.514Z,96890.63
2023-06-10T02:14:20.354Z,96893.50
2023-06-10T02:16:48.200Z,96893.66
2023-06-10T02:19:15.425Z,96892.75
2023-06-10T02:21:42.214Z,96894.31
2023-06-10T02:24:09.287Z,96899.06
2023-06-10T02:26:36.163Z,96900.88
2023-06-10T02:29:03.026Z,96904.25
2023-06-10T02:31:30.184Z,96897.03
2023-06-10T02:33:57.747Z,96888.22
2023-06-10T02:36:25.288Z,96891.69
2023-06-10T02:38:52.113Z,96900.59
2023-06-10T02:41:18.931Z,96895.59
2023-06-10T02:43:45.746Z,96902.97
2023-06-10T02:46:12.632Z,96901.13
2023-06-10T02:48:45.083Z,96910.94
2023-06-10T02:51:12.264Z,96908.31
2023-06-10T02:53:39.084Z,96903.03
2023-06-10T02:56:06.036Z,96907.63
2023-06-10T02:58:32.803Z,96907.44
2023-06-10T03:00:59.655Z,96902.28
2023-06-10T03:03:27.007Z,96902.66
2023-06-10T03:05:53.881Z,96900.50
2023-06-10T03:08:20.828Z,96902.28
2023-06-10T03:10:47.571Z,96907.41
2023-06-10T03:13:15.728Z,96900.34
2023-06-10T03:15:42.517Z,96903.66
2023-06-10T03:18:09.389Z,96898.44
2023-06-10T03:20:38.323Z,96906.47
2023-06-10T03:23:07.928Z,96910.81
2023-06-10T03:25:34.713Z,96910.44
2023-06-10T03:28:01.941Z,96918.28
2023-06-10T03:30:29.377Z,96908.56
2023-06-10T03:32:56.179Z,96917.53
2023-06-10T03:35:23.745Z,96917.88
2023-06-10T03:37:50.565Z,96913.59
2023-06-10T03:40:17.415Z,96918.16
2023-06-10T03:42:45.332Z,96916.84
2023-06-10T03:45:12.744Z,96916.59
2023-06-10T03:47:42.080Z,96911.16
2023-06-10T03:50:09.579Z,96918.19
2023-06-10T03:52:37.384Z,96915.56
2023-06-10T03:55:04.967Z,96919.06
2023-06-10T03:57:31.696Z,96920.28
2023-06-10T03:59:59.641Z,96922.75
2023-06-10T04:02:26.680Z,96926.03
2023-06-10T04:04:53.468Z,96927.03
2023-06-10T04:07:22.794Z,96937.66
2023-06-10T04:09:49.587Z,96930.72
2023-06-10T04:12:17.259Z,96932.69
2023-06-10T04:14:44.039Z,96933.31
2023-06-10T04:17:11.440Z,96931.91
2023-06-10T04:19:38.390Z,96930.66
2023-06-10T04:22:06.401Z,96928.94
2023-06-10T04:24:33.347Z,96930.72
2023-06-10T04:27:00.268Z,96935.22
2023-06-10T04:29:27.041Z,96930.09
2023-06-10T04:31:54.027Z,96936.03
2023-06-10T04:34:21.076Z,96933.75
2023-06-10T04:36:48.062Z,96934.97
2023-06-10T04:39:15.296Z,96933.31
2023-06-10T04:41:42.334Z,96932.63
2023-06-10T04:44:09.172Z,96942.94
2023-06-10T04:46:35.926Z,96951.34
2023-06-10T04:49:02.890Z,96946.63
2023-06-10T04:51:29.722Z,96948.47
2023-06-10T04:53:56.474Z,96944.53
2023-06-10T04:56:23.434Z,96956.69
2023-06-10T04:58:50.161Z,96954.00
2023-06-10T05:01:17.126Z,96951.34
2023-06-10T05:03:43.924Z,96956.69
2023-06-10T05:06:11.265Z,96955.88
2023-06-10T05:08:38.034Z,96956.06
2023-06-10T05:11:07.721Z,96952.38
2023-06-10T05:13:34.438Z,96957.72
2023-06-10T05:16:01.298Z,96955.41
2023-06-10T05:18:28.104Z,96956.44
2023-06-10T05:20:55.243Z,96964.47
2023-06-10T05:23:22.026Z,96958.09
2023-06-10T05:25:49.713Z,96951.91
2023-06-10T05:28:16.440Z,96948.63
2023-06-10T05:30:43.201Z,96955.16
2023-06-10T05:33:10.033Z,96956.81
2023-06-10T05:35:36.771Z,96965.88
2023-06-10T05:38:04.376Z,96957.25
2023-06-10T05:40:31.230Z,96964.72
2023-06-10T05:42:57.975Z,96967.63
2023-06-10T05:45:24.787Z,96963.69
2023-06-10T05:47:52.053Z,96958.34
2023-06-10T05:50:18.828Z,96963.09
2023-06-10T05:52:45.601Z,96964.56
2023-06-10T05:55:12.686Z,96966.84
2023-06-10T05:57:39.706Z,96961.50
2023-06-10T06:00:07.075Z,96970.81
2023-06-10T06:02:33.929Z,96966.84
2023-06-10T06:05:00.865Z,96961.13
2023-06-10T06:07:28.145Z,96966.84
2023-06-10T06:09:54.877Z,96964.19
2023-06-10T06:12:21.612Z,96962.97
2023-06-10T06:14:50.497Z,96958.06
2023-06-10T06:17:17.249Z,96954.75
2023-06-10T06:19:51.486Z,96963.56
2023-06-10T06:22:21.641Z,96961.91
2023-06-10T06:24:52.774Z,96962.91
2023-06-10T06:27:19.710Z,96957.75
2023-06-10T06:29:46.504Z,96963.34
2023-06-10T06:32:13.803Z,96960.50
2023-06-10T06:34:40.913Z,96958.06
2023-06-10T06:37:07.681Z,96958.06
2023-06-10T06:39:34.392Z,96959.13
2023-06-10T06:42:01.180Z,96960.97
2023-06-10T06:44:27.940Z,96967.34
2023-06-10T06:46:54.920Z,96963.03
2023-06-10T06:49:21.824Z,96965.69
2023-06-10T06:51:48.658Z,96967.75
2023-06-10T06:54:15.535Z,96969.38
2023-06-10T06:56:42.425Z,96966.97
2023-06-10T06:59:09.173Z,96963.91
2023-06-10T07:01:36.268Z,96969.25
2023-06-10T07:04:03.151Z,96971.53
2023-06-10T07:06:29.891Z,96974.41
2023-06-10T07:08:56.659Z,96964.72
2023-06-10T07:11:23.419Z,96963.50
2023-06-10T07:13:50.208Z,96974.00
2023-06-10T07:16:17.016Z,96966.81
2023-06-10T07:18:43.882Z,96965.16
2023-06-10T07:21:10.703Z,96963.56
2023-06-10T07:23:37.465Z,96966.88
2023-06-10T07:26:04.377Z,96963.16
2023-06-10T07:28:31.190Z,96966.94
2023-06-10T07:30:58.011Z,96964.06
2023-06-10T07:33:24.863Z,96964.06
2023-06-10T07:35:51.580Z,96959.53
2023-06-10T07:38:19.122Z,96965.72
2023-06-10T07:40:46.682Z,96962.03
2023-06-10T07:43:13.686Z,96958.31
2023-06-10T07:45:44.298Z,96957.09
2023-06-10T07:48:11.483Z,96968.06
2023-06-10T07:50:38.459Z,96964.16
2023-06-10T07:53:05.248Z,96968.28
2023-06-10T07:55:31.997Z,96971.56
2023-06-10T07:57:58.811Z,96964.34
2023-06-10T08:00:25.907Z,96974.88
2023-06-10T08:02:53.373Z,96970.97
2023-06-10T08:05:20.361Z,96967.06
2023-06-10T08:07:47.216Z,96970.97
2023-06-10T08:10:13.964Z,96975.50
2023-06-10T08:12:40.768Z,96965.00
2023-06-10T08:15:08.435Z,96964.78
2023-06-10T08:17:36.003Z,96966.00
2023-06-10T08:20:03.029Z,96960.47
2023-06-10T08:22:30.658Z,96967.06
2023-06-10T08:24:57.564Z,96966.88
2023-06-10T08:27:24.533Z,96975.34
2023-06-10T08:29:51.857Z,96972.03
2023-06-10T08:32:18.687Z,96963.19
2023-06-10T08:34:45.471Z,96968.34
2023-06-10T08:37:12.285Z,96967.94
2023-06-10T08:39:39.105Z,96970.03
2023-06-10T08:42:27.852Z,96964.47
2023-06-10T08:45:02.500Z,96974.16
2023-06-10T08:47:32.679Z,96966.31
2023-06-10T08:50:05.159Z,96972.06
2023-06-10T08:52:39.193Z,96969.19
2023-06-10T08:55:16.370Z,96968.16
2023-06-10T08:57:45.804Z,96968.59
2023-06-10T09:00:14.371Z,96974.78
2023-06-10T09:02:41.312Z,96956.88
2023-06-10T09:05:09.876Z,96962.66
2023-06-10T09:07:38.308Z,96961.63
2023-06-10T09:10:08.704Z,96954.22
2023-06-10T09:12:36.740Z,96969.25
2023-06-10T09:15:04.121Z,96969.06
2023-06-10T09:17:31.391Z,96959.78
2023-06-10T09:19:58.427Z,96956.91
2023-06-10T09:22:28.264Z,96960.81
2023-06-10T09:25:05.186Z,96966.59
2023-06-10T09:27:33.917Z,96959.84
2023-06-10T09:30:00.937Z,96958.59
2023-06-10T09:32:28.067Z,96961.91
2023-06-10T09:34:54.857Z,96964.22
2023-06-10T09:37:23.335Z,96973.91
2023-06-10T09:40:07.477Z,96968.75
2023-06-10T09:42:36.584Z,96963.59
2023-06-10T09:45:05.200Z,96967.72
2023-06-10T09:47:32.237Z,96957.25
2023-06-10T09:49:59.065Z,96969.81
2023-06-10T09:52:28.503Z,96962.63
2023-06-10T09:55:00.614Z,96966.53
2023-06-10T09:57:33.777Z,96974.75
2023-06-10T10:00:01.035Z,96975.19
2023-06-10T10:02:28.168Z,96976.63
2023-06-10T10:05:03.148Z,96973.09
2023-06-10T10:07:29.975Z,96980.13
2023-06-10T10:09:57.090Z,96984.66
2023-06-10T10:12:24.674Z,96979.28
2023-06-10T10:14:52.103Z,96979.50
2023-06-10T10:17:21.712Z,96979.09
2023-06-10T10:19:51.946Z,96981.38
2023-06-10T10:22:24.407Z,96978.50
2023-06-10T10:24:53.224Z,96981.81
2023-06-10T10:27:27.885Z,96982.41
2023-06-10T10:29:56.177Z,96984.50
2023-06-10T10:32:36.260Z,96981.38
2023-06-10T10:35:09.914Z,96985.53
2023-06-10T10:37:37.837Z,96988.59
2023-06-10T10:40:05.736Z,96989.44
2023-06-10T10:42:33.400Z,96981.38
2023-06-10T10:45:00.699Z,96985.09
2023-06-10T10:47:32.300Z,96979.75
2023-06-10T10:50:00.813Z,96981.59
2023-06-10T10:52:49.567Z,96979.72
2023-06-10T10:55:16.364Z,96984.69
2023-06-10T10:57:43.157Z,96988.41
2023-06-10T11:00:11.216Z,96989.22
2023-06-10T11:02:41.585Z,96992.94
2023-06-10T11:05:09.642Z,96983.03
2023-06-10T11:07:37.733Z,96989.84
2023-06-10T11:10:09.727Z,96991.06
2023-06-10T11:12:45.773Z,96989.63
2023-06-10T11:15:14.066Z,96982.41
2023-06-10T11:18:08.694Z,96977.47
2023-06-10T11:20:50.757Z,96985.31
2023-06-10T11:23:29.698Z,96985.75
2023-06-10T11:26:16.867Z,96980.00
2023-06-10T11:29:06.962Z,96975.25
2023-06-10T11:31:40.656Z,96977.31
2023-06-10T11:34:08.457Z,96978.34
2023-06-10T11:36:43.672Z,96982.88
2023-06-10T11:39:11.726Z,96977.50
2023-06-10T11:41:41.176Z,96974.63
2023-06-10T11:44:12.540Z,96980.59
2023-06-10T11:46:40.645Z,96980.78
2023-06-10T11:49:07.897Z,96968.84
2023-06-10T11:51:38.014Z,96966.78
2023-06-10T11:54:05.189Z,96971.75
2023-06-10T11:56:33.424Z,96975.25
2023-06-10T11:59:07.054Z,96973.81
2023-06-10T12:01:38.809Z,96974.03
2023-06-10T12:04:09.673Z,96964.34
2023-06-10T12:06:55.253Z,96963.31
2023-06-10T12:09:29.159Z,96963.72
2023-06-10T12:12:03.505Z,96969.31
2023-06-10T12:14:56.419Z,96965.41
2023-06-10T12:17:33.923Z,96959.19
2023-06-10T12:20:02.618Z,96961.06
2023-06-10T12:22:37.732Z,96956.72
2023-06-10T12:25:08.097Z,96948.69
2023-06-10T12:27:36.811Z,96954.03
2023-06-10T12:30:06.130Z,96952.00
2023-06-10T12:32:51.957Z,96958.38
2023-06-10T12:35:21.093Z,96960.22
2023-06-10T12:38:08.227Z,96959.63
2023-06-10T12:40:37.757Z,96951.41
2023-06-10T12:43:04.873Z,96950.59
2023-06-10T12:45:44.532Z,96948.53
2023-06-10T12:48:13.852Z,96956.56
2023-06-10T12:50:43.440Z,96953.47
2023-06-10T12:53:12.617Z,96949.34
2023-06-10T12:55:39.830Z,96942.75
2023-06-10T12:58:06.640Z,96944.41
2023-06-10T13:00:36.002Z,96943.56
2023-06-10T13:03:04.377Z,96950.59
2023-06-10T13:05:31.503Z,96933.47
2023-06-10T13:07:58.835Z,96944.00
2023-06-10T13:10:26.288Z,96940.06
2023-06-10T13:12:53.858Z,96939.44
2023-06-10T13:15:20.701Z,96929.97
2023-06-10T13:17:51.058Z,96925.78
2023-06-10T13:20:19.183Z,96934.88
2023-06-10T13:22:46.468Z,96929.31
2023-06-10T13:25:13.483Z,96922.06
2023-06-10T13:27:41.173Z,96917.53
2023-06-10T13:30:09.524Z,96916.06
2023-06-10T13:32:37.341Z,96914.22
2023-06-10T13:35:05.287Z,96922.28
2023-06-10T13:37:32.439Z,96916.28
2023-06-10T13:39:59.166Z,96911.13
2023-06-10T13:42:27.756Z,96912.16
2023-06-10T13:44:54.502Z,96915.06
2023-06-10T13:47:22.209Z,96924.53
2023-06-10T13:49:49.069Z,96914.03
2023-06-10T13:52:15.799Z,96923.50
2023-06-10T13:54:42.537Z,96915.66
2023-06-10T13:57:11.703Z,96915.47
2023-06-10T13:59:38.643Z,96907.81
2023-06-10T14:02:05.884Z,96910.09
2023-06-10T14:04:33.763Z,96904.50
2023-06-10T14:07:00.701Z,96907.59
2023-06-10T14:09:27.477Z,96907.59
2023-06-10T14:11:54.257Z,96902.44
2023-06-10T14:14:21.022Z,96910.69
2023-06-10T14:16:47.773Z,96901.22
2023-06-10T14:19:14.890Z,96904.28
2023-06-10T14:21:41.943Z,96905.09
2023-06-10T14:24:09.018Z,96903.88
2023-06-10T14:26:35.823Z,96899.53
2023-06-10T14:29:04.076Z,96902.63
2023-06-10T14:31:30.892Z,96900.97
2023-06-10T14:33:57.666Z,96909.22
2023-06-10T14:36:24.454Z,96903.44
2023-06-10T14:38:52.278Z,96915.44
2023-06-10T14:41:19.020Z,96915.84
2023-06-10T14:43:45.849Z,96908.63
2023-06-10T14:46:12.754Z,96908.81
2023-06-10T14:48:39.640Z,96910.91
2023-06-10T14:51:06.479Z,96917.69
2023-06-10T14:53:33.242Z,96912.34
2023-06-10T14:55:59.981Z,96913.78
2023-06-10T14:58:27.019Z,96919.34
2023-06-10T15:00:53.913Z,96919.34
2023-06-10T15:03:20.815Z,96915.84
2023-06-10T15:05:48.106Z,96913.97
2023-06-10T15:08:15.097Z,96903.47
2023-06-10T15:10:42.036Z,96899.94
2023-06-10T15:13:08.814Z,96899.53
2023-06-10T15:15:35.565Z,96897.84
2023-06-10T15:18:02.419Z,96893.31
2023-06-10T15:20:29.195Z,96894.09
2023-06-10T15:22:56.102Z,96898.03
2023-06-10T15:25:30.529Z,96906.06
2023-06-10T15:27:58.519Z,96915.34
2023-06-10T15:30:25.333Z,96918.09
2023-06-10T15:32:52.465Z,96919.34
2023-06-10T15:35:19.474Z,96921.41
2023-06-10T15:37:46.326Z,96921.84
2023-06-10T15:40:13.135Z,96923.06
2023-06-10T15:42:40.059Z,96918.13
2023-06-10T15:45:07.597Z,96924.09
2023-06-10T15:47:34.673Z,96919.97
2023-06-10T15:50:01.487Z,96931.13
2023-06-10T15:52:28.235Z,96929.91
2023-06-10T15:54:54.980Z,96926.19
2023-06-10T15:57:23.528Z,96922.06
2023-06-10T15:59:52.677Z,96920.63
2023-06-10T16:02:19.403Z,96923.06
2023-06-10T16:04:46.307Z,96923.06
2023-06-10T16:07:13.038Z,96930.28
2023-06-10T16:09:39.885Z,96922.03
2023-06-10T16:12:07.128Z,96922.84
2023-06-10T16:14:34.010Z,96925.97
2023-06-10T16:17:02.029Z,96917.94
2023-06-10T16:19:28.975Z,96938.16
2023-06-10T16:21:55.953Z,96925.34
2023-06-10T16:24:22.850Z,96922.06
2023-06-10T16:26:49.884Z,96932.38
2023-06-10T16:29:17.129Z,96931.53
2023-06-10T16:31:43.906Z,96930.31
2023-06-10T16:34:11.134Z,96927.81
2023-06-10T16:36:38.178Z,96939.41
2023-06-10T16:39:05.230Z,96937.31
2023-06-10T16:41:32.038Z,96942.91
2023-06-10T16:44:01.851Z,96949.28
2023-06-10T16:46:30.473Z,96953.63
2023-06-10T16:48:57.237Z,96950.72
2023-06-10T16:51:24.019Z,96954.66
2023-06-10T16:53:52.212Z,96951.97
2023-06-10T16:56:19.095Z,96943.94
2023-06-10T16:58:49.721Z,96949.50
2023-06-10T17:01:16.887Z,96950.53
2023-06-10T17:03:43.670Z,96961.06
2023-06-10T17:06:11.224Z,96965.41
2023-06-10T17:08:37.992Z,96969.13
2023-06-10T17:11:04.773Z,96975.09
2023-06-10T17:13:31.717Z,96976.13
2023-06-10T17:15:58.676Z,96983.56
2023-06-10T17:18:25.778Z,96984.41
2023-06-10T17:20:52.577Z,96983.16
2023-06-10T17:23:19.341Z,96976.75
2023-06-10T17:25:46.278Z,96978.63
2023-06-10T17:28:13.430Z,96977.78
2023-06-10T17:30:40.258Z,96979.25
2023-06-10T17:33:07.436Z,96970.16
2023-06-10T17:35:34.743Z,96980.06
2023-06-10T17:38:01.457Z,96985.03
2023-06-10T17:40:28.237Z,96982.34
2023-06-10T17:42:55.050Z,96981.91
2023-06-10T17:45:22.244Z,96989.16
2023-06-10T17:47:49.104Z,96979.03
2023-06-10T17:50:19.244Z,96987.69
2023-06-10T17:52:46.648Z,96992.03
2023-06-10T17:55:13.563Z,96994.09
2023-06-10T17:57:41.151Z,96985.84
2023-06-10T18:00:08.741Z,96987.50
2023-06-10T18:02:36.244Z,96992.03
2023-06-10T18:05:03.257Z,96994.09
2023-06-10T18:07:30.107Z,96997.41
2023-06-10T18:09:56.879Z,97000.91
2023-06-10T18:12:23.753Z,97004.00
2023-06-10T18:14:50.577Z,97004.41
2023-06-10T18:17:17.576Z,97006.06
2023-06-10T18:19:44.596Z,97005.88
2023-06-10T18:22:11.320Z,97003.41
2023-06-10T18:24:38.118Z,97013.31
2023-06-10T18:27:05.297Z,97005.69
2023-06-10T18:29:32.026Z,97003.63
2023-06-10T18:32:00.366Z,97006.72
2023-06-10T18:34:29.880Z,97000.50
2023-06-10T18:36:57.000Z,97004.03
2023-06-10T18:39:23.766Z,97001.34
2023-06-10T18:41:50.612Z,97000.50
2023-06-10T18:44:17.456Z,97007.53
2023-06-10T18:46:44.326Z,97005.88
2023-06-10T18:49:11.391Z,97010.41
2023-06-10T18:51:38.351Z,97016.19
2023-06-10T18:54:05.405Z,97016.41
2023-06-10T18:56:32.433Z,97030.00
2023-06-10T18:58:59.300Z,97025.47
2023-06-10T19:01:26.167Z,97039.50
2023-06-10T19:03:53.120Z,97040.72
2023-06-10T19:06:19.943Z,97051.66
2023-06-10T19:08:47.701Z,97050.41
2023-06-10T19:11:14.805Z,97056.53
2023-06-10T19:13:42.058Z,97067.28
2023-06-10T19:16:08.993Z,97060.06
2023-06-10T19:18:35.892Z,97062.31
2023-06-10T19:21:05.216Z,97063.75
2023-06-10T19:23:34.081Z,97070.13
2023-06-10T19:26:01.437Z,97071.97
2023-06-10T19:28:28.146Z,97078.56
2023-06-10T19:30:54.869Z,97076.28
2023-06-10T19:33:21.605Z,97083.28
2023-06-10T19:35:48.489Z,97088.03
2023-06-10T19:38:15.279Z,97094.59
2023-06-10T19:40:42.237Z,97094.84
2023-06-10T19:43:08.994Z,97106.75
2023-06-10T19:45:35.749Z,97110.47
2023-06-10T19:48:02.633Z,97111.47
2023-06-10T19:50:29.715Z,97111.28
2023-06-10T19:52:56.480Z,97114.78
2023-06-10T19:55:23.242Z,97112.09
2023-06-10T19:57:50.058Z,97124.47
2023-06-10T20:00:17.528Z,97125.47
2023-06-10T20:02:44.375Z,97115.78
2023-06-10T20:05:11.486Z,97124.63
2023-06-10T20:07:38.655Z,97122.16
2023-06-10T20:10:05.888Z,97125.88
2023-06-10T20:12:32.815Z,97124.59
2023-06-10T20:14:59.635Z,97120.19
2023-06-10T20:17:28.173Z,97120.38
2023-06-10T20:19:55.212Z,97123.09
2023-06-10T20:22:22.390Z,97126.59
2023-06-10T20:24:53.224Z,97127.03
2023-06-10T20:27:20.080Z,97122.22
2023-06-10T20:29:46.925Z,97126.56
2023-06-10T20:32:13.829Z,97131.47
2023-06-10T20:34:42.394Z,97127.63
2023-06-10T20:37:09.192Z,97127.84
2023-06-10T20:39:36.103Z,97134.34
2023-06-10T20:42:03.031Z,97141.09
2023-06-10T20:44:29.877Z,97141.53
2023-06-10T20:46:56.818Z,97140.16
2023-06-10T20:49:23.968Z,97137.53
2023-06-10T20:51:50.701Z,97142.16
2023-06-10T20:54:17.495Z,97137.00
2023-06-10T20:56:45.799Z,97138.00
2023-06-10T20:59:12.730Z,97140.28
2023-06-10T21:01:39.641Z,97147.47
2023-06-10T21:04:06.731Z,97150.66
2023-06-10T21:06:33.637Z,97156.72
2023-06-10T21:09:00.585Z,97151.38
2023-06-10T21:11:27.582Z,97150.88
2023-06-10T21:13:54.322Z,97142.28
2023-06-10T21:16:21.402Z,97152.97
2023-06-10T21:18:48.237Z,97151.97
2023-06-10T21:21:15.027Z,97147.56
2023-06-10T21:23:41.828Z,97148.41
2023-06-10T21:26:08.577Z,97154.78
2023-06-10T21:28:35.327Z,97153.50
2023-06-10T21:31:03.782Z,97152.41
2023-06-10T21:33:30.885Z,97151.41
2023-06-10T21:35:58.613Z,97154.25
2023-06-10T21:38:25.491Z,97148.41
2023-06-10T21:40:53.093Z,97147.09
2023-06-10T21:43:19.928Z,97155.69
2023-06-10T21:45:46.729Z,97150.16
2023-06-10T21:48:13.659Z,97163.66
2023-06-10T21:50:40.649Z,97154.03
2023-06-10T21:53:07.412Z,97158.19
2023-06-10T21:55:34.208Z,97161.19
2023-06-10T21:58:00.994Z,97162.38
2023-06-10T22:00:28.240Z,97158.69
2023-06-10T22:02:55.130Z,97163.09
2023-06-10T22:05:22.213Z,97169.41
2023-06-10T22:07:49.000Z,97161.34
2023-06-10T22:10:15.942Z,97162.84
2023-06-10T22:12:42.728Z,97167.59
2023-06-10T22:15:10.352Z,97163.97
2023-06-10T22:17:37.567Z,97162.00
2023-06-10T22:20:04.656Z,97161.19
2023-06-10T22:22:31.362Z,97163.84
2023-06-10T22:24:58.920Z,97160.25
2023-06-10T22:27:25.774Z,97157.59
2023-06-10T22:29:52.596Z,97166.69
2023-06-10T22:32:19.565Z,97166.09
2023-06-10T22:34:47.234Z,97161.44
2023-06-10T22:37:14.080Z,97157.34
2023-06-10T22:39:41.014Z,97156.50
2023-06-10T22:42:10.424Z,97159.84
2023-06-10T22:44:37.880Z,97152.44
2023-06-10T22:47:04.985Z,97141.53
2023-06-10T22:49:31.774Z,97142.81
2023-06-10T22:51:58.739Z,97145.88
2023-06-10T22:54:27.927Z,97146.00
2023-06-10T22:56:54.909Z,97147.84
2023-06-10T22:59:21.838Z,97143.56
2023-06-10T23:01:48.742Z,97144.34
2023-06-10T23:04:16.003Z,97154.47
2023-06-10T23:06:42.969Z,97149.13
2023-06-10T23:09:10.494Z,97153.66
2023-06-10T23:11:37.901Z,97148.28
2023-06-10T23:14:04.641Z,97145.81
2023-06-10T23:16:31.515Z,97147.41
2023-06-10T23:18:59.977Z,97156.91
2023-06-10T23:21:30.050Z,97150.91
2023-06-10T23:24:00.754Z,97164.25
2023-06-10T23:26:28.539Z,97163.09
2023-06-10T23:28:55.539Z,97166.69
2023-06-10T23:31:22.389Z,97172.09
2023-06-10T23:33:50.546Z,97169.13
2023-06-10T23:36:17.716Z,97178.66
2023-06-10T23:38:44.573Z,97178.03
2023-06-10T23:41:11.341Z,97174.94
2023-06-10T23:43:38.103Z,97174.56
2023-06-10T23:46:04.892Z,97179.09
2023-06-10T23:48:32.132Z,97177.22
2023-06-10T23:51:01.139Z,97178.88
2023-06-10T23:53:28.274Z,97173.91
2023-06-10T23:55:55.056Z,97176.56
2023-06-10T23:58:22.365Z,97176.13
